sensor_id;sensor_type;location;lat;lon;timestamp;P1;durP1;ratioP1;P2;durP2;ratioP2
69985;SDS011;57328;52.054;5.294;2022-07-05T00:00:30;5.65;;;2.65;;
69985;SDS011;57328;52.054;5.294;2022-07-05T00:02:58;6.57;;;2.05;;
69985;SDS011;57328;52.054;5.294;2022-07-05T00:05:25;4.55;;;1.85;;
69985;SDS011;57328;52.054;5.294;2022-07-05T00:07:54;3.53;;;1.90;;
69985;SDS011;57328;52.054;5.294;2022-07-05T00:10:22;2.10;;;1.45;;
69985;SDS011;57328;52.054;5.294;2022-07-05T00:12:49;2.97;;;1.90;;
69985;SDS011;57328;52.054;5.294;2022-07-05T00:15:16;4.28;;;2.33;;
69985;SDS011;57328;52.054;5.294;2022-07-05T00:17:44;2.65;;;1.70;;
69985;SDS011;57328;52.054;5.294;2022-07-05T00:20:12;4.85;;;2.05;;
69985;SDS011;57328;52.054;5.294;2022-07-05T00:22:39;2.63;;;2.08;;
69985;SDS011;57328;52.054;5.294;2022-07-05T00:25:06;4.35;;;2.17;;
69985;SDS011;57328;52.054;5.294;2022-07-05T00:27:33;4.30;;;1.92;;
69985;SDS011;57328;52.054;5.294;2022-07-05T00:30:01;4.00;;;2.22;;
69985;SDS011;57328;52.054;5.294;2022-07-05T00:32:30;5.13;;;2.03;;
69985;SDS011;57328;52.054;5.294;2022-07-05T00:34:57;3.67;;;2.17;;
69985;SDS011;57328;52.054;5.294;2022-07-05T00:37:24;3.30;;;1.92;;
69985;SDS011;57328;52.054;5.294;2022-07-05T00:39:53;5.88;;;2.45;;
69985;SDS011;57328;52.054;5.294;2022-07-05T00:42:21;5.22;;;2.45;;
69985;SDS011;57328;52.054;5.294;2022-07-05T00:44:48;5.22;;;2.47;;
69985;SDS011;57328;52.054;5.294;2022-07-05T00:47:15;6.40;;;2.30;;
69985;SDS011;57328;52.054;5.294;2022-07-05T00:49:44;6.32;;;2.40;;
69985;SDS011;57328;52.054;5.294;2022-07-05T00:52:11;4.05;;;1.88;;
69985;SDS011;57328;52.054;5.294;2022-07-05T00:54:46;5.65;;;2.38;;
69985;SDS011;57328;52.054;5.294;2022-07-05T00:57:15;4.63;;;2.15;;
69985;SDS011;57328;52.054;5.294;2022-07-05T00:59:43;4.07;;;2.08;;
69985;SDS011;57328;52.054;5.294;2022-07-05T01:02:10;4.43;;;2.03;;
69985;SDS011;57328;52.054;5.294;2022-07-05T01:04:44;4.28;;;1.92;;
69985;SDS011;57328;52.054;5.294;2022-07-05T01:07:12;5.95;;;2.10;;
69985;SDS011;57328;52.054;5.294;2022-07-05T01:09:39;5.38;;;1.98;;
69985;SDS011;57328;52.054;5.294;2022-07-05T01:12:07;4.95;;;2.40;;
69985;SDS011;57328;52.054;5.294;2022-07-05T01:14:35;3.92;;;1.95;;
69985;SDS011;57328;52.054;5.294;2022-07-05T01:17:02;3.22;;;2.05;;
69985;SDS011;57328;52.054;5.294;2022-07-05T01:19:32;4.57;;;2.15;;
69985;SDS011;57328;52.054;5.294;2022-07-05T01:22:01;4.25;;;2.20;;
69985;SDS011;57328;52.054;5.294;2022-07-05T01:24:30;5.47;;;2.42;;
69985;SDS011;57328;52.054;5.294;2022-07-05T01:26:57;3.53;;;2.17;;
69985;SDS011;57328;52.054;5.294;2022-07-05T01:29:24;4.72;;;2.10;;
69985;SDS011;57328;52.054;5.294;2022-07-05T01:31:52;5.05;;;1.90;;
69985;SDS011;57328;52.054;5.294;2022-07-05T01:34:19;3.95;;;2.00;;
69985;SDS011;57328;52.054;5.294;2022-07-05T01:36:49;4.95;;;2.15;;
69985;SDS011;57328;52.054;5.294;2022-07-05T01:39:16;4.82;;;2.38;;
69985;SDS011;57328;52.054;5.294;2022-07-05T01:41:43;2.65;;;1.83;;
69985;SDS011;57328;52.054;5.294;2022-07-05T01:44:10;3.03;;;1.80;;
69985;SDS011;57328;52.054;5.294;2022-07-05T01:46:38;4.18;;;2.15;;
69985;SDS011;57328;52.054;5.294;2022-07-05T01:49:08;4.60;;;2.17;;
69985;SDS011;57328;52.054;5.294;2022-07-05T01:51:39;3.22;;;2.15;;
69985;SDS011;57328;52.054;5.294;2022-07-05T01:54:07;3.67;;;1.95;;
69985;SDS011;57328;52.054;5.294;2022-07-05T01:56:36;3.88;;;2.03;;
69985;SDS011;57328;52.054;5.294;2022-07-05T01:59:03;5.22;;;2.40;;
69985;SDS011;57328;52.054;5.294;2022-07-05T02:01:38;3.35;;;1.90;;
69985;SDS011;57328;52.054;5.294;2022-07-05T02:06:33;3.05;;;1.70;;
69985;SDS011;57328;52.054;5.294;2022-07-05T02:09:00;2.38;;;1.40;;
69985;SDS011;57328;52.054;5.294;2022-07-05T02:11:27;1.83;;;1.40;;
69985;SDS011;57328;52.054;5.294;2022-07-05T02:13:54;3.47;;;1.80;;
69985;SDS011;57328;52.054;5.294;2022-07-05T02:16:23;3.03;;;1.80;;
69985;SDS011;57328;52.054;5.294;2022-07-05T02:18:51;3.78;;;1.70;;
69985;SDS011;57328;52.054;5.294;2022-07-05T02:21:19;1.75;;;1.30;;
69985;SDS011;57328;52.054;5.294;2022-07-05T02:23:46;3.13;;;2.10;;
69985;SDS011;57328;52.054;5.294;2022-07-05T02:26:13;4.85;;;1.77;;
69985;SDS011;57328;52.054;5.294;2022-07-05T02:28:40;3.97;;;2.00;;
69985;SDS011;57328;52.054;5.294;2022-07-05T02:31:07;4.82;;;2.40;;
69985;SDS011;57328;52.054;5.294;2022-07-05T02:33:35;3.08;;;2.00;;
69985;SDS011;57328;52.054;5.294;2022-07-05T02:36:11;4.05;;;2.00;;
69985;SDS011;57328;52.054;5.294;2022-07-05T02:38:39;3.97;;;2.10;;
69985;SDS011;57328;52.054;5.294;2022-07-05T02:41:07;4.22;;;2.38;;
69985;SDS011;57328;52.054;5.294;2022-07-05T02:43:34;4.00;;;2.40;;
69985;SDS011;57328;52.054;5.294;2022-07-05T02:46:02;4.07;;;2.03;;
69985;SDS011;57328;52.054;5.294;2022-07-05T02:48:30;4.15;;;2.20;;
69985;SDS011;57328;52.054;5.294;2022-07-05T02:51:00;5.30;;;2.28;;
69985;SDS011;57328;52.054;5.294;2022-07-05T02:53:28;3.72;;;2.28;;
69985;SDS011;57328;52.054;5.294;2022-07-05T02:55:55;3.03;;;1.98;;
69985;SDS011;57328;52.054;5.294;2022-07-05T02:58:24;4.40;;;2.20;;
69985;SDS011;57328;52.054;5.294;2022-07-05T03:00:53;3.22;;;1.88;;
69985;SDS011;57328;52.054;5.294;2022-07-05T03:03:20;5.15;;;2.60;;
69985;SDS011;57328;52.054;5.294;2022-07-05T03:05:47;4.07;;;1.92;;
69985;SDS011;57328;52.054;5.294;2022-07-05T03:08:15;3.00;;;1.65;;
69985;SDS011;57328;52.054;5.294;2022-07-05T03:10:42;4.22;;;1.60;;
69985;SDS011;57328;52.054;5.294;2022-07-05T03:13:11;2.47;;;1.75;;
69985;SDS011;57328;52.054;5.294;2022-07-05T03:15:38;3.28;;;1.83;;
69985;SDS011;57328;52.054;5.294;2022-07-05T03:18:08;4.15;;;2.08;;
69985;SDS011;57328;52.054;5.294;2022-07-05T03:20:36;4.97;;;2.03;;
69985;SDS011;57328;52.054;5.294;2022-07-05T03:23:03;4.43;;;2.10;;
69985;SDS011;57328;52.054;5.294;2022-07-05T03:25:30;3.63;;;2.17;;
69985;SDS011;57328;52.054;5.294;2022-07-05T03:27:57;5.57;;;2.55;;
69985;SDS011;57328;52.054;5.294;2022-07-05T03:30:27;3.65;;;1.80;;
69985;SDS011;57328;52.054;5.294;2022-07-05T03:32:54;4.50;;;2.50;;
69985;SDS011;57328;52.054;5.294;2022-07-05T03:35:21;3.72;;;2.10;;
69985;SDS011;57328;52.054;5.294;2022-07-05T03:37:50;4.38;;;2.55;;
69985;SDS011;57328;52.054;5.294;2022-07-05T03:40:17;4.57;;;2.53;;
69985;SDS011;57328;52.054;5.294;2022-07-05T03:42:44;6.35;;;2.90;;
69985;SDS011;57328;52.054;5.294;2022-07-05T03:45:11;3.70;;;2.17;;
69985;SDS011;57328;52.054;5.294;2022-07-05T03:47:38;4.60;;;2.30;;
69985;SDS011;57328;52.054;5.294;2022-07-05T03:50:09;3.25;;;1.60;;
69985;SDS011;57328;52.054;5.294;2022-07-05T03:52:36;4.65;;;2.67;;
69985;SDS011;57328;52.054;5.294;2022-07-05T03:55:03;3.45;;;2.22;;
69985;SDS011;57328;52.054;5.294;2022-07-05T03:57:30;4.20;;;2.40;;
69985;SDS011;57328;52.054;5.294;2022-07-05T03:59:57;6.45;;;2.55;;
69985;SDS011;57328;52.054;5.294;2022-07-05T04:02:25;6.32;;;3.00;;
69985;SDS011;57328;52.054;5.294;2022-07-05T04:04:52;5.90;;;3.03;;
69985;SDS011;57328;52.054;5.294;2022-07-05T04:07:21;5.63;;;3.05;;
69985;SDS011;57328;52.054;5.294;2022-07-05T04:09:48;7.88;;;3.30;;
69985;SDS011;57328;52.054;5.294;2022-07-05T04:12:15;5.55;;;3.35;;
69985;SDS011;57328;52.054;5.294;2022-07-05T04:14:42;7.40;;;4.03;;
69985;SDS011;57328;52.054;5.294;2022-07-05T04:17:12;6.22;;;3.58;;
69985;SDS011;57328;52.054;5.294;2022-07-05T04:19:39;5.15;;;2.97;;
69985;SDS011;57328;52.054;5.294;2022-07-05T04:22:07;5.57;;;3.28;;
69985;SDS011;57328;52.054;5.294;2022-07-05T04:24:34;7.88;;;3.42;;
69985;SDS011;57328;52.054;5.294;2022-07-05T04:27:23;6.00;;;3.20;;
69985;SDS011;57328;52.054;5.294;2022-07-05T04:29:51;6.05;;;3.17;;
69985;SDS011;57328;52.054;5.294;2022-07-05T04:32:19;5.47;;;3.20;;
69985;SDS011;57328;52.054;5.294;2022-07-05T04:34:46;4.18;;;2.67;;
69985;SDS011;57328;52.054;5.294;2022-07-05T04:37:13;6.90;;;3.40;;
69985;SDS011;57328;52.054;5.294;2022-07-05T04:39:40;5.85;;;3.30;;
69985;SDS011;57328;52.054;5.294;2022-07-05T04:42:08;7.30;;;4.20;;
69985;SDS011;57328;52.054;5.294;2022-07-05T04:44:37;8.25;;;4.40;;
69985;SDS011;57328;52.054;5.294;2022-07-05T04:47:04;9.48;;;5.25;;
69985;SDS011;57328;52.054;5.294;2022-07-05T04:49:32;10.65;;;6.15;;
69985;SDS011;57328;52.054;5.294;2022-07-05T04:52:01;9.13;;;5.40;;
69985;SDS011;57328;52.054;5.294;2022-07-05T04:54:28;9.93;;;6.10;;
69985;SDS011;57328;52.054;5.294;2022-07-05T04:56:57;11.20;;;6.90;;
69985;SDS011;57328;52.054;5.294;2022-07-05T04:59:24;11.45;;;5.85;;
69985;SDS011;57328;52.054;5.294;2022-07-05T05:01:52;10.95;;;6.70;;
69985;SDS011;57328;52.054;5.294;2022-07-05T05:04:21;10.95;;;6.15;;
69985;SDS011;57328;52.054;5.294;2022-07-05T05:06:48;9.98;;;6.75;;
69985;SDS011;57328;52.054;5.294;2022-07-05T05:09:15;13.82;;;7.10;;
69985;SDS011;57328;52.054;5.294;2022-07-05T05:11:42;10.10;;;6.70;;
69985;SDS011;57328;52.054;5.294;2022-07-05T05:14:09;10.85;;;6.68;;
69985;SDS011;57328;52.054;5.294;2022-07-05T05:16:38;9.20;;;5.90;;
69985;SDS011;57328;52.054;5.294;2022-07-05T05:19:06;11.98;;;7.60;;
69985;SDS011;57328;52.054;5.294;2022-07-05T05:21:33;11.68;;;7.38;;
69985;SDS011;57328;52.054;5.294;2022-07-05T05:24:00;10.00;;;6.82;;
69985;SDS011;57328;52.054;5.294;2022-07-05T05:26:27;10.77;;;6.93;;
69985;SDS011;57328;52.054;5.294;2022-07-05T05:28:56;10.10;;;7.05;;
69985;SDS011;57328;52.054;5.294;2022-07-05T05:31:23;11.23;;;6.50;;
69985;SDS011;57328;52.054;5.294;2022-07-05T05:33:51;10.38;;;7.00;;
69985;SDS011;57328;52.054;5.294;2022-07-05T05:36:18;10.27;;;7.13;;
69985;SDS011;57328;52.054;5.294;2022-07-05T05:38:45;11.25;;;6.78;;
69985;SDS011;57328;52.054;5.294;2022-07-05T05:41:16;10.52;;;7.75;;
69985;SDS011;57328;52.054;5.294;2022-07-05T05:43:43;10.73;;;8.10;;
69985;SDS011;57328;52.054;5.294;2022-07-05T05:46:14;10.00;;;7.43;;
69985;SDS011;57328;52.054;5.294;2022-07-05T05:48:41;10.80;;;7.60;;
69985;SDS011;57328;52.054;5.294;2022-07-05T05:51:08;13.43;;;7.93;;
69985;SDS011;57328;52.054;5.294;2022-07-05T05:53:36;11.55;;;7.13;;
69985;SDS011;57328;52.054;5.294;2022-07-05T05:56:03;11.60;;;8.05;;
69985;SDS011;57328;52.054;5.294;2022-07-05T05:58:30;9.85;;;7.97;;
69985;SDS011;57328;52.054;5.294;2022-07-05T06:00:57;9.90;;;8.18;;
69985;SDS011;57328;52.054;5.294;2022-07-05T06:03:25;11.05;;;8.38;;
69985;SDS011;57328;52.054;5.294;2022-07-05T06:05:53;10.82;;;8.00;;
69985;SDS011;57328;52.054;5.294;2022-07-05T06:10:49;9.98;;;7.68;;
69985;SDS011;57328;52.054;5.294;2022-07-05T06:13:24;10.68;;;7.55;;
69985;SDS011;57328;52.054;5.294;2022-07-05T06:15:56;10.35;;;7.07;;
69985;SDS011;57328;52.054;5.294;2022-07-05T06:18:24;10.05;;;7.47;;
69985;SDS011;57328;52.054;5.294;2022-07-05T06:20:52;9.60;;;7.13;;
69985;SDS011;57328;52.054;5.294;2022-07-05T06:23:19;10.65;;;6.95;;
69985;SDS011;57328;52.054;5.294;2022-07-05T06:25:48;12.90;;;7.90;;
69985;SDS011;57328;52.054;5.294;2022-07-05T06:28:17;11.93;;;7.93;;
69985;SDS011;57328;52.054;5.294;2022-07-05T06:30:44;10.38;;;8.13;;
69985;SDS011;57328;52.054;5.294;2022-07-05T06:33:11;12.60;;;8.32;;
69985;SDS011;57328;52.054;5.294;2022-07-05T06:35:39;11.70;;;8.20;;
69985;SDS011;57328;52.054;5.294;2022-07-05T06:38:07;12.60;;;7.43;;
69985;SDS011;57328;52.054;5.294;2022-07-05T06:40:35;12.43;;;8.45;;
69985;SDS011;57328;52.054;5.294;2022-07-05T06:43:06;9.35;;;7.40;;
69985;SDS011;57328;52.054;5.294;2022-07-05T06:45:33;12.55;;;8.32;;
69985;SDS011;57328;52.054;5.294;2022-07-05T06:48:04;13.98;;;7.97;;
69985;SDS011;57328;52.054;5.294;2022-07-05T06:50:33;12.18;;;7.90;;
69985;SDS011;57328;52.054;5.294;2022-07-05T06:53:04;10.40;;;6.75;;
69985;SDS011;57328;52.054;5.294;2022-07-05T06:55:33;10.90;;;6.80;;
69985;SDS011;57328;52.054;5.294;2022-07-05T06:58:01;11.07;;;6.82;;
69985;SDS011;57328;52.054;5.294;2022-07-05T07:00:43;9.95;;;6.25;;
69985;SDS011;57328;52.054;5.294;2022-07-05T07:03:31;10.07;;;6.43;;
69985;SDS011;57328;52.054;5.294;2022-07-05T07:06:18;14.25;;;6.53;;
69985;SDS011;57328;52.054;5.294;2022-07-05T07:08:45;12.60;;;6.50;;
69985;SDS011;57328;52.054;5.294;2022-07-05T07:11:30;10.52;;;6.90;;
69985;SDS011;57328;52.054;5.294;2022-07-05T07:13:58;10.40;;;6.35;;
69985;SDS011;57328;52.054;5.294;2022-07-05T07:16:26;12.98;;;7.00;;
69985;SDS011;57328;52.054;5.294;2022-07-05T07:18:53;13.45;;;6.20;;
69985;SDS011;57328;52.054;5.294;2022-07-05T07:21:39;12.00;;;6.47;;
69985;SDS011;57328;52.054;5.294;2022-07-05T07:24:07;8.57;;;6.05;;
69985;SDS011;57328;52.054;5.294;2022-07-05T07:26:35;10.13;;;6.05;;
69985;SDS011;57328;52.054;5.294;2022-07-05T07:31:48;9.18;;;5.68;;
69985;SDS011;57328;52.054;5.294;2022-07-05T07:34:16;10.35;;;5.75;;
69985;SDS011;57328;52.054;5.294;2022-07-05T07:36:43;10.43;;;4.93;;
69985;SDS011;57328;52.054;5.294;2022-07-05T07:39:10;9.85;;;4.55;;
69985;SDS011;57328;52.054;5.294;2022-07-05T07:41:38;6.22;;;3.03;;
69985;SDS011;57328;52.054;5.294;2022-07-05T07:44:06;5.47;;;2.90;;
69985;SDS011;57328;52.054;5.294;2022-07-05T07:46:33;5.95;;;2.40;;
69985;SDS011;57328;52.054;5.294;2022-07-05T07:49:00;7.00;;;1.92;;
69985;SDS011;57328;52.054;5.294;2022-07-05T07:51:28;6.50;;;2.60;;
69985;SDS011;57328;52.054;5.294;2022-07-05T07:53:56;3.70;;;2.10;;
69985;SDS011;57328;52.054;5.294;2022-07-05T07:56:47;4.47;;;1.70;;
69985;SDS011;57328;52.054;5.294;2022-07-05T07:59:14;4.60;;;1.30;;
69985;SDS011;57328;52.054;5.294;2022-07-05T08:01:41;3.15;;;1.67;;
69985;SDS011;57328;52.054;5.294;2022-07-05T08:04:11;5.22;;;2.13;;
69985;SDS011;57328;52.054;5.294;2022-07-05T08:06:39;6.20;;;2.30;;
69985;SDS011;57328;52.054;5.294;2022-07-05T08:09:06;3.67;;;1.90;;
69985;SDS011;57328;52.054;5.294;2022-07-05T08:11:41;2.85;;;1.77;;
69985;SDS011;57328;52.054;5.294;2022-07-05T08:14:10;6.97;;;1.90;;
69985;SDS011;57328;52.054;5.294;2022-07-05T08:16:37;4.05;;;1.90;;
69985;SDS011;57328;52.054;5.294;2022-07-05T08:19:04;3.60;;;1.70;;
69985;SDS011;57328;52.054;5.294;2022-07-05T08:21:50;4.15;;;1.83;;
69985;SDS011;57328;52.054;5.294;2022-07-05T08:24:17;4.43;;;1.88;;
69985;SDS011;57328;52.054;5.294;2022-07-05T08:26:45;5.55;;;2.22;;
69985;SDS011;57328;52.054;5.294;2022-07-05T08:29:12;8.57;;;2.20;;
69985;SDS011;57328;52.054;5.294;2022-07-05T08:31:49;3.92;;;2.00;;
69985;SDS011;57328;52.054;5.294;2022-07-05T08:34:16;4.63;;;1.85;;
69985;SDS011;57328;52.054;5.294;2022-07-05T08:36:46;5.03;;;1.88;;
69985;SDS011;57328;52.054;5.294;2022-07-05T08:39:14;3.42;;;2.15;;
69985;SDS011;57328;52.054;5.294;2022-07-05T08:41:51;5.82;;;2.28;;
69985;SDS011;57328;52.054;5.294;2022-07-05T08:44:21;5.18;;;1.60;;
69985;SDS011;57328;52.054;5.294;2022-07-05T08:46:49;3.67;;;1.48;;
69985;SDS011;57328;52.054;5.294;2022-07-05T08:49:22;5.18;;;1.90;;
69985;SDS011;57328;52.054;5.294;2022-07-05T08:51:50;4.60;;;2.20;;
69985;SDS011;57328;52.054;5.294;2022-07-05T08:54:17;4.30;;;2.17;;
69985;SDS011;57328;52.054;5.294;2022-07-05T08:56:44;2.75;;;1.70;;
69985;SDS011;57328;52.054;5.294;2022-07-05T08:59:32;5.50;;;1.85;;
69985;SDS011;57328;52.054;5.294;2022-07-05T09:01:59;5.32;;;2.13;;
69985;SDS011;57328;52.054;5.294;2022-07-05T09:04:29;5.55;;;2.38;;
69985;SDS011;57328;52.054;5.294;2022-07-05T09:07:01;2.88;;;1.90;;
69985;SDS011;57328;52.054;5.294;2022-07-05T09:09:33;5.47;;;2.00;;
69985;SDS011;57328;52.054;5.294;2022-07-05T09:12:00;3.47;;;1.95;;
69985;SDS011;57328;52.054;5.294;2022-07-05T09:14:47;5.07;;;2.30;;
69985;SDS011;57328;52.054;5.294;2022-07-05T09:17:14;4.70;;;2.15;;
69985;SDS011;57328;52.054;5.294;2022-07-05T09:19:42;5.40;;;2.53;;
69985;SDS011;57328;52.054;5.294;2022-07-05T09:22:09;6.70;;;2.30;;
69985;SDS011;57328;52.054;5.294;2022-07-05T09:24:43;4.95;;;1.98;;
69985;SDS011;57328;52.054;5.294;2022-07-05T09:27:15;3.90;;;1.63;;
69985;SDS011;57328;52.054;5.294;2022-07-05T09:29:53;3.72;;;1.60;;
69985;SDS011;57328;52.054;5.294;2022-07-05T09:32:28;2.55;;;1.52;;
69985;SDS011;57328;52.054;5.294;2022-07-05T09:34:56;5.28;;;1.50;;
69985;SDS011;57328;52.054;5.294;2022-07-05T09:37:31;6.25;;;1.60;;
69985;SDS011;57328;52.054;5.294;2022-07-05T09:40:08;3.47;;;1.40;;
69985;SDS011;57328;52.054;5.294;2022-07-05T09:42:46;3.03;;;1.60;;
69985;SDS011;57328;52.054;5.294;2022-07-05T09:45:23;4.75;;;1.48;;
69985;SDS011;57328;52.054;5.294;2022-07-05T09:47:53;5.00;;;1.48;;
69985;SDS011;57328;52.054;5.294;2022-07-05T09:50:41;4.15;;;1.58;;
69985;SDS011;57328;52.054;5.294;2022-07-05T09:53:27;1.88;;;1.10;;
69985;SDS011;57328;52.054;5.294;2022-07-05T09:56:26;5.22;;;1.40;;
69985;SDS011;57328;52.054;5.294;2022-07-05T09:59:18;3.63;;;1.35;;
69985;SDS011;57328;52.054;5.294;2022-07-05T10:01:46;3.67;;;1.15;;
69985;SDS011;57328;52.054;5.294;2022-07-05T10:04:14;4.63;;;1.10;;
69985;SDS011;57328;52.054;5.294;2022-07-05T10:06:42;3.03;;;1.20;;
69985;SDS011;57328;52.054;5.294;2022-07-05T10:09:09;3.72;;;1.30;;
69985;SDS011;57328;52.054;5.294;2022-07-05T10:11:39;7.72;;;1.40;;
69985;SDS011;57328;52.054;5.294;2022-07-05T10:14:11;3.80;;;1.13;;
69985;SDS011;57328;52.054;5.294;2022-07-05T10:16:39;3.05;;;1.10;;
69985;SDS011;57328;52.054;5.294;2022-07-05T10:19:07;3.42;;;0.90;;
69985;SDS011;57328;52.054;5.294;2022-07-05T10:21:37;2.53;;;1.10;;
69985;SDS011;57328;52.054;5.294;2022-07-05T10:24:24;4.45;;;1.15;;
69985;SDS011;57328;52.054;5.294;2022-07-05T10:26:55;3.28;;;1.10;;
69985;SDS011;57328;52.054;5.294;2022-07-05T10:29:23;2.88;;;1.00;;
69985;SDS011;57328;52.054;5.294;2022-07-05T10:31:51;4.57;;;0.93;;
69985;SDS011;57328;52.054;5.294;2022-07-05T10:34:18;1.77;;;0.82;;
69985;SDS011;57328;52.054;5.294;2022-07-05T10:37:06;3.53;;;1.10;;
69985;SDS011;57328;52.054;5.294;2022-07-05T10:39:35;3.67;;;1.10;;
69985;SDS011;57328;52.054;5.294;2022-07-05T10:42:03;4.95;;;1.30;;
69985;SDS011;57328;52.054;5.294;2022-07-05T10:44:33;4.50;;;1.05;;
69985;SDS011;57328;52.054;5.294;2022-07-05T10:47:07;1.95;;;0.85;;
69985;SDS011;57328;52.054;5.294;2022-07-05T10:49:37;5.15;;;1.23;;
69985;SDS011;57328;52.054;5.294;2022-07-05T10:52:24;3.72;;;1.00;;
69985;SDS011;57328;52.054;5.294;2022-07-05T10:57:38;2.17;;;1.20;;
69985;SDS011;57328;52.054;5.294;2022-07-05T11:00:13;3.28;;;1.23;;
69985;SDS011;57328;52.054;5.294;2022-07-05T11:02:40;4.18;;;1.40;;
69985;SDS011;57328;52.054;5.294;2022-07-05T11:05:07;5.18;;;2.05;;
69985;SDS011;57328;52.054;5.294;2022-07-05T11:10:22;3.78;;;1.00;;
69985;SDS011;57328;52.054;5.294;2022-07-05T11:12:51;4.18;;;1.20;;
69985;SDS011;57328;52.054;5.294;2022-07-05T11:15:18;4.38;;;1.20;;
69985;SDS011;57328;52.054;5.294;2022-07-05T11:17:46;3.80;;;1.10;;
69985;SDS011;57328;52.054;5.294;2022-07-05T11:20:26;2.30;;;1.00;;
69985;SDS011;57328;52.054;5.294;2022-07-05T11:23:01;5.25;;;0.95;;
69985;SDS011;57328;52.054;5.294;2022-07-05T11:25:36;3.08;;;1.23;;
69985;SDS011;57328;52.054;5.294;2022-07-05T11:33:28;4.57;;;1.00;;
69985;SDS011;57328;52.054;5.294;2022-07-05T11:35:55;3.70;;;1.00;;
69985;SDS011;57328;52.054;5.294;2022-07-05T11:38:26;4.00;;;1.20;;
69985;SDS011;57328;52.054;5.294;2022-07-05T11:41:13;5.60;;;1.20;;
69985;SDS011;57328;52.054;5.294;2022-07-05T11:43:41;3.25;;;0.90;;
69985;SDS011;57328;52.054;5.294;2022-07-05T11:46:09;3.95;;;1.17;;
69985;SDS011;57328;52.054;5.294;2022-07-05T11:48:56;6.38;;;1.30;;
69985;SDS011;57328;52.054;5.294;2022-07-05T11:51:23;4.70;;;1.20;;
69985;SDS011;57328;52.054;5.294;2022-07-05T11:53:51;2.80;;;0.98;;
69985;SDS011;57328;52.054;5.294;2022-07-05T11:56:38;3.03;;;0.75;;
69985;SDS011;57328;52.054;5.294;2022-07-05T11:59:21;3.22;;;1.10;;
69985;SDS011;57328;52.054;5.294;2022-07-05T12:01:49;3.80;;;1.02;;
69985;SDS011;57328;52.054;5.294;2022-07-05T12:06:49;4.15;;;1.48;;
69985;SDS011;57328;52.054;5.294;2022-07-05T12:09:33;3.53;;;1.08;;
69985;SDS011;57328;52.054;5.294;2022-07-05T12:12:22;2.67;;;0.93;;
69985;SDS011;57328;52.054;5.294;2022-07-05T12:15:14;4.10;;;0.88;;
69985;SDS011;57328;52.054;5.294;2022-07-05T12:17:42;4.10;;;1.05;;
69985;SDS011;57328;52.054;5.294;2022-07-05T12:20:11;5.97;;;1.00;;
69985;SDS011;57328;52.054;5.294;2022-07-05T12:22:40;3.63;;;0.90;;
69985;SDS011;57328;52.054;5.294;2022-07-05T12:25:08;2.35;;;0.90;;
69985;SDS011;57328;52.054;5.294;2022-07-05T12:27:37;2.75;;;0.75;;
69985;SDS011;57328;52.054;5.294;2022-07-05T12:30:09;4.53;;;0.95;;
69985;SDS011;57328;52.054;5.294;2022-07-05T12:35:28;7.88;;;0.93;;
69985;SDS011;57328;52.054;5.294;2022-07-05T12:37:56;2.35;;;0.77;;
69985;SDS011;57328;52.054;5.294;2022-07-05T12:40:24;3.97;;;0.93;;
69985;SDS011;57328;52.054;5.294;2022-07-05T12:43:01;3.17;;;0.80;;
69985;SDS011;57328;52.054;5.294;2022-07-05T12:45:28;3.70;;;0.75;;
69985;SDS011;57328;52.054;5.294;2022-07-05T12:47:57;2.88;;;0.70;;
69985;SDS011;57328;52.054;5.294;2022-07-05T12:50:28;2.92;;;0.73;;
69985;SDS011;57328;52.054;5.294;2022-07-05T12:53:23;4.25;;;0.70;;
69985;SDS011;57328;52.054;5.294;2022-07-05T12:56:11;2.17;;;0.55;;
69985;SDS011;57328;52.054;5.294;2022-07-05T12:59:56;1.83;;;0.70;;
69985;SDS011;57328;52.054;5.294;2022-07-05T13:02:42;3.05;;;0.43;;
69985;SDS011;57328;52.054;5.294;2022-07-05T13:05:20;3.10;;;0.95;;
69985;SDS011;57328;52.054;5.294;2022-07-05T13:07:49;1.20;;;0.70;;
69985;SDS011;57328;52.054;5.294;2022-07-05T13:10:22;1.60;;;0.50;;
69985;SDS011;57328;52.054;5.294;2022-07-05T13:12:49;2.97;;;0.60;;
69985;SDS011;57328;52.054;5.294;2022-07-05T13:15:17;0.70;;;0.57;;
69985;SDS011;57328;52.054;5.294;2022-07-05T13:17:45;2.45;;;0.65;;
69985;SDS011;57328;52.054;5.294;2022-07-05T13:20:13;3.60;;;0.90;;
69985;SDS011;57328;52.054;5.294;2022-07-05T13:22:41;3.20;;;1.00;;
69985;SDS011;57328;52.054;5.294;2022-07-05T13:25:08;3.30;;;0.70;;
69985;SDS011;57328;52.054;5.294;2022-07-05T13:27:41;2.55;;;0.70;;
69985;SDS011;57328;52.054;5.294;2022-07-05T13:30:08;3.08;;;0.65;;
69985;SDS011;57328;52.054;5.294;2022-07-05T13:32:36;2.70;;;0.57;;
69985;SDS011;57328;52.054;5.294;2022-07-05T13:35:03;2.10;;;0.90;;
69985;SDS011;57328;52.054;5.294;2022-07-05T13:37:31;2.15;;;0.70;;
69985;SDS011;57328;52.054;5.294;2022-07-05T13:39:58;1.50;;;0.63;;
69985;SDS011;57328;52.054;5.294;2022-07-05T13:42:25;1.95;;;0.75;;
69985;SDS011;57328;52.054;5.294;2022-07-05T13:44:52;2.15;;;1.02;;
69985;SDS011;57328;52.054;5.294;2022-07-05T13:47:20;2.83;;;0.75;;
69985;SDS011;57328;52.054;5.294;2022-07-05T13:49:49;2.10;;;0.90;;
69985;SDS011;57328;52.054;5.294;2022-07-05T13:52:44;2.75;;;0.70;;
69985;SDS011;57328;52.054;5.294;2022-07-05T13:55:14;1.20;;;0.70;;
69985;SDS011;57328;52.054;5.294;2022-07-05T13:57:45;2.47;;;0.80;;
69985;SDS011;57328;52.054;5.294;2022-07-05T14:00:13;1.85;;;0.70;;
69985;SDS011;57328;52.054;5.294;2022-07-05T14:02:40;4.32;;;0.80;;
69985;SDS011;57328;52.054;5.294;2022-07-05T14:05:07;1.90;;;0.65;;
69985;SDS011;57328;52.054;5.294;2022-07-05T14:07:35;3.08;;;0.73;;
69985;SDS011;57328;52.054;5.294;2022-07-05T14:10:03;3.95;;;1.00;;
69985;SDS011;57328;52.054;5.294;2022-07-05T14:14:57;1.55;;;0.55;;
69985;SDS011;57328;52.054;5.294;2022-07-05T14:17:24;1.48;;;0.88;;
69985;SDS011;57328;52.054;5.294;2022-07-05T14:19:51;2.15;;;0.73;;
69985;SDS011;57328;52.054;5.294;2022-07-05T14:22:19;2.13;;;0.70;;
69985;SDS011;57328;52.054;5.294;2022-07-05T14:24:46;2.15;;;0.90;;
69985;SDS011;57328;52.054;5.294;2022-07-05T14:27:13;3.33;;;0.75;;
69985;SDS011;57328;52.054;5.294;2022-07-05T14:29:40;3.28;;;0.70;;
69985;SDS011;57328;52.054;5.294;2022-07-05T14:32:08;0.88;;;0.68;;
69985;SDS011;57328;52.054;5.294;2022-07-05T14:34:35;2.28;;;0.80;;
69985;SDS011;57328;52.054;5.294;2022-07-05T14:37:02;3.05;;;0.70;;
69985;SDS011;57328;52.054;5.294;2022-07-05T14:39:31;3.83;;;0.65;;
69985;SDS011;57328;52.054;5.294;2022-07-05T14:42:00;1.30;;;0.70;;
69985;SDS011;57328;52.054;5.294;2022-07-05T14:44:28;4.70;;;0.90;;
69985;SDS011;57328;52.054;5.294;2022-07-05T14:50:25;3.15;;;1.00;;
69985;SDS011;57328;52.054;5.294;2022-07-05T14:52:52;3.72;;;0.93;;
69985;SDS011;57328;52.054;5.294;2022-07-05T14:55:20;3.13;;;0.93;;
69985;SDS011;57328;52.054;5.294;2022-07-05T14:57:47;5.28;;;1.10;;
69985;SDS011;57328;52.054;5.294;2022-07-05T15:00:15;1.42;;;0.70;;
69985;SDS011;57328;52.054;5.294;2022-07-05T15:02:42;2.50;;;0.80;;
69985;SDS011;57328;52.054;5.294;2022-07-05T15:05:09;2.08;;;1.00;;
69985;SDS011;57328;52.054;5.294;2022-07-05T15:07:38;3.03;;;1.02;;
69985;SDS011;57328;52.054;5.294;2022-07-05T15:10:07;3.22;;;0.93;;
69985;SDS011;57328;52.054;5.294;2022-07-05T15:15:02;2.17;;;0.90;;
69985;SDS011;57328;52.054;5.294;2022-07-05T15:17:29;3.28;;;0.90;;
69985;SDS011;57328;52.054;5.294;2022-07-05T15:19:56;2.38;;;0.90;;
69985;SDS011;57328;52.054;5.294;2022-07-05T15:22:24;3.25;;;1.02;;
69985;SDS011;57328;52.054;5.294;2022-07-05T15:24:52;2.33;;;0.80;;
69985;SDS011;57328;52.054;5.294;2022-07-05T15:27:23;2.42;;;1.00;;
69985;SDS011;57328;52.054;5.294;2022-07-05T15:29:52;3.55;;;1.10;;
69985;SDS011;57328;52.054;5.294;2022-07-05T15:32:19;1.75;;;0.80;;
69985;SDS011;57328;52.054;5.294;2022-07-05T15:34:46;3.38;;;1.00;;